createdAt,value
2023-04-22T08:32:37.616Z,100983.41
2023-04-22T08:35:05.612Z,100978.59
2023-04-22T08:37:32.648Z,100970.47
2023-04-22T08:39:59.514Z,100973.47
2023-04-22T08:42:27.558Z,100970.91
2023-04-22T08:44:54.915Z,100977.88
2023-04-22T08:47:22.112Z,100976.78
2023-04-22T08:49:51.349Z,100976.41
2023-04-22T08:52:18.633Z,100975.81
2023-04-22T08:54:45.538Z,100975.78
2023-04-22T08:57:12.593Z,100968.03
2023-04-22T08:59:40.641Z,100968.97
2023-04-22T09:02:08.909Z,100977.81
2023-04-22T09:04:36.574Z,100957.41
2023-04-22T09:07:04.191Z,100962.22
2023-04-22T09:09:32.308Z,100961.66
2023-04-22T09:11:59.180Z,100955.09
2023-04-22T09:14:26.952Z,100958.44
2023-04-22T09:16:53.937Z,100960.56
2023-04-22T09:19:24.217Z,100947.56
2023-04-22T09:21:53.695Z,100949.19
2023-04-22T09:24:21.238Z,100950.94
2023-04-22T09:26:48.090Z,100939.22
2023-04-22T09:29:16.037Z,100940.25
2023-04-22T09:31:43.091Z,100936.22
2023-04-22T09:34:09.952Z,100938.16
2023-04-22T09:36:39.695Z,100936.50
2023-04-22T09:39:09.770Z,100926.44
2023-04-22T09:41:38.968Z,100914.81
2023-04-22T09:44:11.065Z,100923.81
2023-04-22T09:46:38.003Z,100917.34
2023-04-22T09:49:04.840Z,100923.06
2023-04-22T09:51:32.266Z,100909.31
2023-04-22T09:54:09.180Z,100896.03
2023-04-22T09:56:48.611Z,100898.97
2023-04-22T09:59:26.216Z,100894.50
2023-04-22T10:01:55.424Z,100891.63
2023-04-22T10:04:23.489Z,100896.44
2023-04-22T10:06:51.305Z,100886.84
2023-04-22T10:09:20.217Z,100893.44
2023-04-22T10:11:48.249Z,100886.84
2023-04-22T10:14:15.359Z,100879.66
2023-04-22T10:16:45.436Z,100881.00
2023-04-22T10:19:18.097Z,100869.66
2023-04-22T10:25:21.954Z,100863.44
2023-04-22T10:28:02.097Z,100863.81
2023-04-22T10:30:33.971Z,100858.63
2023-04-22T10:33:27.870Z,100845.00
2023-04-22T10:36:20.259Z,100840.25
2023-04-22T10:38:50.155Z,100842.69
2023-04-22T10:41:17.462Z,100844.84
2023-04-22T10:43:48.706Z,100863.78
2023-04-22T10:46:30.959Z,100844.50
2023-04-22T10:48:58.081Z,100852.31
2023-04-22T10:51:44.472Z,100845.84
2023-04-22T10:54:28.768Z,100829.09
2023-04-22T10:57:14.690Z,100837.28
2023-04-22T10:59:56.087Z,100831.09
2023-04-22T11:02:23.968Z,100824.66
2023-04-22T11:04:54.673Z,100831.78
2023-04-22T11:07:31.991Z,100828.81
2023-04-22T11:10:09.914Z,100818.38
2023-04-22T11:12:39.464Z,100807.41
2023-04-22T11:15:10.414Z,100809.94
2023-04-22T11:17:38.482Z,100799.84
2023-04-22T11:20:06.726Z,100805.50
2023-04-22T11:22:38.604Z,100807.78
2023-04-22T11:25:06.597Z,100794.91
2023-04-22T11:27:34.479Z,100797.28
2023-04-22T11:30:08.410Z,100809.66
2023-04-22T11:32:43.412Z,100808.44
2023-04-22T11:35:12.334Z,100797.53
2023-04-22T11:37:49.355Z,100799.34
2023-04-22T11:40:30.116Z,100791.03
2023-04-22T11:43:02.567Z,100795.31
2023-04-22T11:45:30.949Z,100790.25
2023-04-22T11:47:58.105Z,100791.88
2023-04-22T11:50:27.570Z,100779.25
2023-04-22T11:52:58.763Z,100775.88
2023-04-22T11:55:31.963Z,100779.06
2023-04-22T11:58:17.736Z,100773.47
2023-04-22T12:00:46.834Z,100776.13
2023-04-22T12:03:18.074Z,100781.19
2023-04-22T12:05:46.691Z,100768.31
2023-04-22T12:08:18.939Z,100770.13
2023-04-22T12:10:46.764Z,100773.78
2023-04-22T12:13:21.660Z,100767.28
2023-04-22T12:15:49.337Z,100769.63
2023-04-22T12:18:16.217Z,100767.25
2023-04-22T12:20:43.104Z,100748.59
2023-04-22T12:23:14.702Z,100763.06
2023-04-22T12:25:42.235Z,100757.31
2023-04-22T12:28:09.127Z,100757.41
2023-04-22T12:30:36.094Z,100756.03
2023-04-22T12:33:03.080Z,100759.44
2023-04-22T12:35:29.900Z,100752.72
2023-04-22T12:37:56.739Z,100745.50
2023-04-22T12:40:23.857Z,100761.22
2023-04-22T12:42:50.711Z,100748.31
2023-04-22T12:45:17.631Z,100748.72
2023-04-22T12:47:45.451Z,100746.91
